Time;durP1;ratioP1;P1;durP2;ratioP2;P2;SDS_P1;SDS_P2;PMS_P1;PMS_P2;Temp;Humidity;BMP_temperature;BMP_pressure;BME280_temperature;BME280_humidity;BME280_pressure;Samples;Min_cycle;Max_cycle;Signal;HPM_P1;HPM_P2
2022/01/18 00:00:47;;;;;;;8.07;5.53;;;1.90;99.90;;;;;;5034464;28;20581;-77
2022/01/18 00:03:14;;;;;;;6.47;4.83;;;1.90;99.90;;;;;;5033023;28;20419;-77
2022/01/18 00:05:42;;;;;;;7.63;5.13;;;1.90;99.90;;;;;;5032776;28;20248;-77
2022/01/18 00:08:08;;;;;;;7.83;4.73;;;1.90;99.90;;;;;;5034180;28;20180;-78
2022/01/18 00:10:33;;;;;;;8.00;5.17;;;1.90;99.90;;;;;;5034168;28;20539;-78
2022/01/18 00:20:39;;;;;;;8.00;5.40;;;1.80;99.90;;;;;;5034095;28;20496;-77
2022/01/18 00:23:05;;;;;;;7.13;5.30;;;1.90;99.90;;;;;;5034036;28;20158;-77
2022/01/18 00:25:33;;;;;;;8.63;5.50;;;1.90;99.90;;;;;;5033684;28;20429;-77
2022/01/18 00:28:00;;;;;;;7.73;5.50;;;1.90;99.90;;;;;;5032597;28;20182;-77
2022/01/18 00:35:41;;;;;;;7.63;5.23;;;1.80;99.90;;;;;;5033588;28;20471;-78
2022/01/18 00:38:30;;;;;;;7.53;5.67;;;1.80;99.90;;;;;;5033855;28;20268;-78
2022/01/18 00:40:57;;;;;;;9.17;5.87;;;1.80;99.90;;;;;;5033888;28;20402;-78
2022/01/18 00:43:23;;;;;;;7.13;5.90;;;1.70;99.90;;;;;;5033738;28;20416;-78
2022/01/18 00:45:48;;;;;;;6.50;5.17;;;1.60;99.90;;;;;;5032187;28;20806;-78
2022/01/18 00:48:14;;;;;;;7.67;5.90;;;1.60;99.90;;;;;;5033977;28;20174;-78
2022/01/18 00:50:40;;;;;;;7.23;5.40;;;1.60;99.90;;;;;;5033914;28;20194;-78
2022/01/18 00:53:10;;;;;;;9.67;6.33;;;1.60;99.90;;;;;;5033892;28;20505;-78
2022/01/18 00:55:47;;;;;;;9.17;6.03;;;1.60;99.90;;;;;;5032110;28;20204;-78
2022/01/18 00:58:13;;;;;;;9.07;6.40;;;1.70;99.90;;;;;;5033561;28;20841;-78
2022/01/18 01:00:39;;;;;;;8.77;5.73;;;1.70;99.90;;;;;;5032367;28;20444;-77
2022/01/18 01:03:05;;;;;;;8.60;6.10;;;1.70;99.90;;;;;;5038423;28;20412;-78
2022/01/18 01:05:30;;;;;;;9.00;6.03;;;1.90;99.90;;;;;;5034365;28;20252;-78
2022/01/18 01:07:56;;;;;;;8.73;6.80;;;1.70;99.90;;;;;;5033705;28;20185;-78
2022/01/18 01:10:22;;;;;;;9.23;6.93;;;1.70;99.90;;;;;;5033561;28;20194;-78
2022/01/18 01:12:48;;;;;;;8.67;5.93;;;1.70;99.90;;;;;;5033133;28;20224;-78
2022/01/18 01:15:16;;;;;;;8.60;5.93;;;1.70;99.90;;;;;;5032065;28;20178;-78
2022/01/18 01:18:05;;;;;;;10.37;5.83;;;1.70;99.90;;;;;;5033389;28;20170;-78
2022/01/18 01:44:56;;;;;;;7.40;5.73;;;1.80;99.90;;;;;;5037204;28;20428;-78
2022/01/18 01:47:33;;;;;;;9.43;6.67;;;1.80;99.90;;;;;;5036984;28;20838;-78
2022/01/18 01:49:59;;;;;;;11.13;6.63;;;1.90;99.90;;;;;;5035491;28;20961;-78
2022/01/18 01:52:25;;;;;;;10.50;6.20;;;1.80;99.90;;;;;;5036701;28;20424;-77
2022/01/18 01:54:54;;;;;;;10.37;6.90;;;1.90;99.90;;;;;;5036660;28;20174;-78
2022/01/18 01:57:20;;;;;;;8.63;6.43;;;1.90;99.90;;;;;;5035257;28;20210;-77
2022/01/18 01:59:46;;;;;;;10.07;7.00;;;1.90;99.90;;;;;;5035234;28;20929;-78
2022/01/18 02:02:12;;;;;;;8.47;6.20;;;1.90;99.90;;;;;;5037513;28;20178;-78
2022/01/18 02:04:38;;;;;;;9.30;6.43;;;1.90;99.90;;;;;;5037758;28;20864;-77
2022/01/18 02:07:04;;;;;;;9.63;6.60;;;2.00;99.90;;;;;;5036512;28;20201;-78
2022/01/18 02:09:30;;;;;;;10.73;7.20;;;1.90;99.90;;;;;;5036399;28;20209;-77
2022/01/18 02:11:58;;;;;;;7.47;5.80;;;1.90;99.90;;;;;;5036386;28;20431;-78
2022/01/18 02:14:25;;;;;;;10.80;6.20;;;1.90;99.90;;;;;;5034939;28;20979;-77
2022/01/18 02:22:20;;;;;;;7.80;6.20;;;1.80;99.90;;;;;;5036854;28;20397;-78
2022/01/18 02:24:46;;;;;;;8.77;6.83;;;1.80;99.90;;;;;;5036293;28;20467;-78
2022/01/18 02:27:13;;;;;;;7.63;5.77;;;1.80;99.90;;;;;;5034905;28;20477;-78
2022/01/18 02:29:39;;;;;;;8.87;6.00;;;1.80;99.90;;;;;;5035182;28;20463;-78
2022/01/18 02:32:05;;;;;;;8.00;5.70;;;1.80;99.90;;;;;;5036838;28;20536;-78
2022/01/18 02:34:31;;;;;;;7.70;5.80;;;1.80;99.90;;;;;;5037112;28;20636;-77
2022/01/18 02:36:57;;;;;;;8.90;6.67;;;1.90;99.90;;;;;;5035810;28;20197;-78
2022/01/18 02:39:28;;;;;;;9.83;6.43;;;1.90;99.90;;;;;;5036112;28;20201;-77
2022/01/18 02:42:03;;;;;;;7.70;5.87;;;1.90;99.90;;;;;;5035873;28;20220;-78
2022/01/18 02:44:30;;;;;;;9.27;5.83;;;1.90;99.90;;;;;;5034449;28;20775;-77
2022/01/18 02:46:56;;;;;;;9.33;6.23;;;1.90;99.90;;;;;;5035639;28;20190;-77
2022/01/18 02:49:23;;;;;;;9.73;6.77;;;1.90;99.90;;;;;;5035818;28;20189;-77
2022/01/18 02:51:49;;;;;;;8.07;5.77;;;1.90;99.90;;;;;;5035635;28;20412;-78
2022/01/18 02:54:17;;;;;;;9.90;5.57;;;1.90;99.90;;;;;;5035531;28;20405;-78
2022/01/18 02:56:51;;;;;;;8.40;5.83;;;1.90;99.90;;;;;;5034147;28;20216;-78
2022/01/18 02:59:36;;;;;;;8.67;5.73;;;1.90;99.90;;;;;;5034280;28;20170;-78
2022/01/18 03:05:00;;;;;;;7.57;5.90;;;1.90;99.90;;;;;;5035729;28;20420;-78
2022/01/18 03:07:26;;;;;;;8.97;6.17;;;1.90;99.90;;;;;;5034207;28;20809;-78
2022/01/18 03:09:51;;;;;;;8.80;5.87;;;1.90;99.90;;;;;;5035217;28;20555;-78
2022/01/18 03:12:17;;;;;;;9.90;6.10;;;1.90;99.90;;;;;;5035327;28;20186;-78
2022/01/18 03:14:43;;;;;;;9.33;5.77;;;1.90;99.90;;;;;;5035258;28;20174;-77
2022/01/18 03:17:08;;;;;;;8.50;6.20;;;1.90;99.90;;;;;;5035190;28;20201;-78
2022/01/18 03:19:35;;;;;;;8.40;5.67;;;1.90;99.90;;;;;;5033835;28;20595;-78
2022/01/18 03:22:01;;;;;;;8.83;6.00;;;2.00;99.90;;;;;;5033965;28;20182;-78
2022/01/18 03:29:37;;;;;;;9.67;6.03;;;2.00;99.90;;;;;;5035435;28;20236;-78
2022/01/18 03:32:03;;;;;;;8.93;6.20;;;1.90;99.90;;;;;;5034888;28;20405;-77
2022/01/18 03:34:29;;;;;;;8.47;6.37;;;2.00;99.90;;;;;;5034731;28;20171;-77
2022/01/18 03:36:55;;;;;;;7.73;6.03;;;2.00;99.90;;;;;;5034884;28;20435;-78
2022/01/18 03:39:20;;;;;;;8.97;6.10;;;2.00;99.90;;;;;;5033541;28;20501;-77
2022/01/18 03:41:59;;;;;;;8.80;5.57;;;2.00;99.90;;;;;;5033546;28;20178;-78
2022/01/18 03:44:26;;;;;;;7.77;5.77;;;2.00;99.90;;;;;;5034823;28;20162;-77
2022/01/18 03:46:53;;;;;;;9.70;6.80;;;2.00;99.90;;;;;;5034656;28;20460;-77
2022/01/18 03:49:22;;;;;;;10.17;6.27;;;2.00;99.90;;;;;;5034045;28;20560;-77
2022/01/18 03:51:49;;;;;;;8.20;6.00;;;2.00;99.90;;;;;;5034535;28;20966;-78
2022/01/18 03:54:21;;;;;;;7.67;6.20;;;2.00;99.90;;;;;;5034422;28;20409;-77
2022/01/18 03:56:46;;;;;;;11.00;6.90;;;1.90;99.90;;;;;;5033063;28;20464;-78
2022/01/18 03:59:12;;;;;;;11.77;7.07;;;2.10;99.90;;;;;;5034430;28;20945;-78
2022/01/18 04:01:37;;;;;;;8.97;7.10;;;2.00;99.90;;;;;;5033042;28;20686;-78
2022/01/18 04:04:03;;;;;;;11.57;6.67;;;1.90;99.90;;;;;;5034361;28;20182;-77
2022/01/18 04:06:29;;;;;;;8.70;6.27;;;2.00;99.90;;;;;;5034535;28;20190;-78
2022/01/18 04:08:54;;;;;;;10.80;6.47;;;2.00;99.90;;;;;;5034637;28;20617;-78
2022/01/18 04:11:20;;;;;;;8.83;6.10;;;2.10;99.90;;;;;;5033077;28;20202;-78
2022/01/18 04:13:46;;;;;;;9.80;6.67;;;2.00;99.90;;;;;;5037607;28;20513;-78
2022/01/18 04:16:11;;;;;;;10.57;7.47;;;2.00;99.90;;;;;;5033819;28;20217;-78
2022/01/18 04:18:56;;;;;;;9.43;6.30;;;2.00;99.90;;;;;;5034198;28;20196;-77
2022/01/18 04:26:55;;;;;;;9.00;6.07;;;2.00;99.90;;;;;;5033965;28;20516;-78
2022/01/18 04:29:20;;;;;;;10.37;6.80;;;2.00;99.90;;;;;;5034089;28;20404;-78
2022/01/18 04:31:46;;;;;;;9.20;6.60;;;2.00;99.90;;;;;;5034106;28;20442;-78
2022/01/18 04:34:12;;;;;;;9.90;6.77;;;1.90;99.90;;;;;;5032617;28;20205;-78
2022/01/18 04:36:37;;;;;;;10.17;6.93;;;1.90;99.90;;;;;;5034310;28;20194;-78
2022/01/18 04:39:03;;;;;;;10.07;6.67;;;1.90;99.90;;;;;;5034282;28;20185;-78
2022/01/18 04:41:31;;;;;;;9.57;6.30;;;1.80;99.90;;;;;;5034401;28;20174;-78
2022/01/18 04:49:11;;;;;;;10.90;6.80;;;1.60;99.90;;;;;;5036312;28;20412;-78
2022/01/18 04:51:38;;;;;;;10.07;6.37;;;1.50;99.90;;;;;;5035285;28;20421;-78
2022/01/18 04:54:07;;;;;;;10.40;7.00;;;1.50;99.90;;;;;;5032910;28;20228;-78
2022/01/18 04:59:05;;;;;;;11.10;6.93;;;1.90;99.90;;;;;;5040108;28;20396;-78
2022/01/18 05:01:31;;;;;;;12.47;7.67;;;1.40;99.90;;;;;;5045274;28;20185;-78
2022/01/18 05:03:56;;;;;;;11.90;7.90;;;1.40;99.90;;;;;;5046945;28;20192;-78
2022/01/18 05:06:22;;;;;;;10.27;7.07;;;1.50;99.90;;;;;;5038605;28;20523;-78
2022/01/18 05:08:48;;;;;;;10.03;6.90;;;1.40;99.90;;;;;;5036644;28;20639;-78
2022/01/18 05:11:16;;;;;;;11.23;7.20;;;1.40;99.90;;;;;;5036425;28;20210;-78
2022/01/18 05:19:22;;;;;;;9.90;7.23;;;1.30;99.90;;;;;;5038469;28;20888;-78
2022/01/18 05:24:24;;;;;;;14.37;8.63;;;1.30;99.90;;;;;;5037635;28;20412;-77
2022/01/18 05:26:51;;;;;;;12.57;7.93;;;1.30;99.90;;;;;;5036070;28;20272;-78
2022/01/18 05:29:17;;;;;;;13.20;8.67;;;1.50;99.90;;;;;;5037298;28;20936;-78
2022/01/18 05:31:43;;;;;;;12.60;8.07;;;1.30;99.90;;;;;;5036156;28;20420;-78
2022/01/18 05:34:10;;;;;;;11.33;7.77;;;1.50;99.90;;;;;;5037154;28;20167;-78
2022/01/18 05:36:35;;;;;;;13.87;8.53;;;1.50;99.90;;;;;;5037080;28;20424;-78
2022/01/18 05:39:02;;;;;;;13.13;7.80;;;1.40;99.90;;;;;;5037114;28;20181;-78
2022/01/18 05:41:27;;;;;;;13.63;8.53;;;1.60;99.90;;;;;;5035732;28;20185;-78
2022/01/18 05:43:53;;;;;;;13.83;8.93;;;1.60;99.90;;;;;;5035660;28;20926;-78
2022/01/18 05:46:19;;;;;;;12.80;7.57;;;1.60;99.90;;;;;;5035560;28;20199;-77
2022/01/18 05:48:44;;;;;;;15.83;9.83;;;1.60;99.90;;;;;;5035694;28;20179;-78
2022/01/18 05:51:11;;;;;;;14.67;9.80;;;1.60;99.90;;;;;;5036839;28;20191;-77
2022/01/18 05:53:39;;;;;;;18.00;10.40;;;1.60;99.90;;;;;;5036969;28;20190;-78
2022/01/18 05:56:06;;;;;;;19.40;10.20;;;1.60;99.90;;;;;;5036692;28;20734;-78
2022/01/18 05:58:32;;;;;;;14.07;9.97;;;1.60;99.90;;;;;;5035616;28;20184;-78
2022/01/18 06:00:58;;;;;;;16.60;9.87;;;1.60;99.90;;;;;;5035443;28;20247;-78
2022/01/18 06:03:51;;;;;;;14.30;9.47;;;1.60;99.90;;;;;;5052160;28;20211;-78
2022/01/18 06:09:01;;;;;;;13.70;8.80;;;2.00;99.90;;;;;;5037313;28;20189;-78
2022/01/18 06:11:27;;;;;;;16.60;10.60;;;1.70;99.90;;;;;;5036524;28;20194;-78
2022/01/18 06:13:53;;;;;;;19.00;10.57;;;1.70;99.90;;;;;;5036026;28;20629;-77
2022/01/18 06:16:18;;;;;;;11.93;8.37;;;1.60;99.90;;;;;;5036564;28;20242;-78
2022/01/18 06:18:44;;;;;;;14.20;7.83;;;1.70;99.90;;;;;;5035401;28;20179;-78
2022/01/18 06:21:10;;;;;;;13.87;9.37;;;1.60;99.90;;;;;;5040436;28;20174;-78
2022/01/18 06:23:36;;;;;;;21.50;9.90;;;1.40;99.90;;;;;;5038131;28;20555;-77
2022/01/18 06:26:03;;;;;;;12.53;8.83;;;1.50;99.90;;;;;;5036240;28;20194;-78
2022/01/18 06:28:29;;;;;;;16.33;8.93;;;1.50;99.90;;;;;;5036101;28;20570;-79
2022/01/18 06:30:55;;;;;;;16.53;9.80;;;1.60;99.90;;;;;;5034776;28;20202;-78
2022/01/18 06:33:21;;;;;;;15.70;10.30;;;1.60;99.90;;;;;;5034347;28;20692;-77
2022/01/18 06:35:46;;;;;;;16.73;9.83;;;1.70;99.90;;;;;;5033285;28;20734;-77
2022/01/18 06:38:12;;;;;;;15.20;8.33;;;1.60;99.90;;;;;;5035502;28;20170;-78
2022/01/18 06:40:38;;;;;;;20.77;9.93;;;1.60;99.90;;;;;;5035548;28;20167;-78
2022/01/18 06:43:04;;;;;;;15.60;9.37;;;1.60;99.90;;;;;;5035459;28;20436;-77
2022/01/18 06:45:30;;;;;;;17.37;11.37;;;1.70;99.90;;;;;;5034984;28;20500;-79
2022/01/18 06:47:56;;;;;;;18.67;11.40;;;1.70;99.90;;;;;;5036620;28;20182;-79
2022/01/18 06:50:22;;;;;;;17.23;11.50;;;1.70;99.90;;;;;;5039908;28;20459;-78
2022/01/18 06:52:47;;;;;;;18.93;12.47;;;1.70;99.90;;;;;;5038234;28;20636;-78
2022/01/18 06:55:13;;;;;;;25.63;14.60;;;1.60;99.90;;;;;;5037066;28;20201;-78
2022/01/18 06:57:39;;;;;;;22.70;12.87;;;1.60;99.90;;;;;;5037326;28;20189;-78
2022/01/18 07:00:06;;;;;;;16.07;10.43;;;1.70;99.90;;;;;;5039824;28;20196;-78
2022/01/18 07:02:32;;;;;;;17.70;11.60;;;1.70;99.90;;;;;;5046945;28;20417;-78
2022/01/18 07:04:57;;;;;;;17.10;9.73;;;1.70;99.90;;;;;;5042178;28;20421;-78
2022/01/18 07:07:23;;;;;;;18.00;11.30;;;1.70;99.90;;;;;;5042370;28;20202;-78
2022/01/18 07:09:49;;;;;;;18.30;12.40;;;1.70;99.90;;;;;;5041654;28;20194;-78
2022/01/18 07:12:16;;;;;;;16.40;10.33;;;1.80;99.90;;;;;;5050390;28;20404;-78
2022/01/18 07:14:42;;;;;;;20.27;10.90;;;2.10;99.90;;;;;;5049040;28;20178;-78
2022/01/18 07:17:08;;;;;;;17.67;10.53;;;1.80;99.90;;;;;;5036401;28;20437;-79
2022/01/18 07:19:35;;;;;;;18.43;10.97;;;1.90;99.90;;;;;;5036868;28;20427;-78
2022/01/18 07:22:01;;;;;;;16.13;11.77;;;1.90;99.90;;;;;;5036309;28;20920;-78
2022/01/18 07:24:46;;;;;;;23.50;12.03;;;1.80;99.90;;;;;;5035252;28;20408;-78
2022/01/18 07:27:14;;;;;;;18.83;11.47;;;1.80;99.90;;;;;;5034986;28;20231;-78
2022/01/18 07:29:41;;;;;;;23.67;13.00;;;1.80;99.90;;;;;;5034593;28;20452;-78
2022/01/18 07:32:08;;;;;;;49.80;24.03;;;1.80;99.90;;;;;;5034659;28;20424;-78
2022/01/18 07:34:38;;;;;;;29.23;14.90;;;1.80;99.90;;;;;;5034432;28;20421;-78
2022/01/18 07:37:04;;;;;;;15.40;10.63;;;1.80;99.90;;;;;;5034591;28;20428;-78
2022/01/18 07:39:30;;;;;;;21.87;11.33;;;1.80;99.90;;;;;;5034513;28;20471;-78
2022/01/18 07:41:55;;;;;;;15.80;10.83;;;1.80;99.90;;;;;;5034358;28;20268;-78
2022/01/18 07:44:21;;;;;;;21.47;12.90;;;1.90;99.90;;;;;;5033948;28;20171;-78
2022/01/18 07:46:47;;;;;;;22.40;12.47;;;1.80;99.90;;;;;;5035620;28;20186;-78
2022/01/18 07:49:13;;;;;;;20.80;11.40;;;1.80;99.90;;;;;;5035917;28;20527;-78
2022/01/18 07:51:38;;;;;;;16.37;10.93;;;1.90;99.90;;;;;;5034281;28;20209;-78
2022/01/18 07:54:04;;;;;;;19.73;11.97;;;1.80;99.90;;;;;;5035233;28;20261;-78
2022/01/18 07:56:30;;;;;;;14.80;9.77;;;1.90;99.90;;;;;;5035457;28;20281;-78
2022/01/18 07:58:55;;;;;;;19.47;9.83;;;1.90;99.90;;;;;;5034009;28;20178;-78
2022/01/18 08:01:21;;;;;;;16.17;9.43;;;1.90;99.90;;;;;;5035382;28;20638;-78
2022/01/18 08:03:47;;;;;;;17.37;9.23;;;1.80;99.90;;;;;;5035207;28;20234;-79
2022/01/18 08:06:13;;;;;;;14.80;9.33;;;1.90;99.90;;;;;;5035015;28;20198;-78
2022/01/18 08:08:39;;;;;;;13.70;9.60;;;1.90;99.90;;;;;;5036252;28;20635;-79
2022/01/18 08:11:08;;;;;;;15.47;10.23;;;1.90;99.90;;;;;;5046965;28;20276;-78
2022/01/18 08:13:40;;;;;;;16.87;9.33;;;1.80;99.90;;;;;;5046214;28;20205;-79
2022/01/18 08:18:54;;;;;;;11.67;8.13;;;1.90;99.90;;;;;;5037093;28;20916;-78
2022/01/18 08:21:21;;;;;;;11.30;8.03;;;1.80;99.90;;;;;;5038996;28;20182;-79
2022/01/18 08:23:47;;;;;;;14.63;9.17;;;1.80;99.90;;;;;;5039687;28;20409;-78
2022/01/18 08:26:12;;;;;;;12.67;8.87;;;1.90;99.90;;;;;;5038844;28;20445;-79
2022/01/18 08:28:38;;;;;;;16.83;9.00;;;1.90;99.90;;;;;;5040454;28;20182;-79
2022/01/18 08:31:04;;;;;;;14.83;9.03;;;1.90;99.90;;;;;;5038558;28;20210;-78
2022/01/18 08:33:31;;;;;;;16.00;9.67;;;2.00;99.90;;;;;;5036968;28;20182;-79
2022/01/18 08:35:59;;;;;;;14.50;10.03;;;2.00;99.90;;;;;;5037069;28;20200;-79
2022/01/18 08:38:26;;;;;;;15.60;9.40;;;1.90;99.90;;;;;;5037271;28;20432;-78
2022/01/18 08:40:54;;;;;;;12.77;8.70;;;2.10;99.90;;;;;;5037080;28;20851;-79
2022/01/18 08:43:20;;;;;;;12.90;8.23;;;2.00;99.90;;;;;;5039515;28;20874;-78
2022/01/18 08:45:46;;;;;;;13.83;10.17;;;1.90;99.90;;;;;;5037354;28;20520;-79
2022/01/18 08:48:12;;;;;;;12.33;8.70;;;1.90;99.90;;;;;;5037219;28;20990;-78
2022/01/18 08:50:38;;;;;;;12.27;8.00;;;1.90;99.90;;;;;;5038323;28;20515;-79
2022/01/18 08:53:04;;;;;;;12.30;7.70;;;1.90;99.90;;;;;;5035741;28;20181;-77
2022/01/18 08:55:33;;;;;;;10.53;7.47;;;2.00;99.90;;;;;;5033306;28;20412;-77
2022/01/18 08:57:58;;;;;;;11.13;7.80;;;2.00;99.90;;;;;;5032677;28;20193;-79
2022/01/18 09:00:24;;;;;;;11.47;8.03;;;2.00;99.90;;;;;;5033815;28;20474;-77
2022/01/18 09:02:50;;;;;;;11.90;7.83;;;2.00;99.90;;;;;;5032302;28;20196;-77
2022/01/18 09:05:16;;;;;;;9.97;7.03;;;2.00;99.90;;;;;;5033540;28;20216;-77
2022/01/18 09:07:42;;;;;;;9.30;6.60;;;2.10;99.90;;;;;;5033735;28;20578;-77
2022/01/18 09:10:11;;;;;;;8.17;6.03;;;2.10;99.90;;;;;;5033363;28;20536;-77
2022/01/18 09:12:37;;;;;;;8.37;5.33;;;2.10;99.90;;;;;;5032329;28;20232;-77
2022/01/18 09:15:06;;;;;;;8.57;5.73;;;2.20;99.90;;;;;;5033430;28;20180;-77
2022/01/18 09:17:36;;;;;;;10.63;6.13;;;2.10;99.90;;;;;;5033485;28;20736;-77
2022/01/18 09:20:08;;;;;;;9.83;6.07;;;2.20;99.90;;;;;;5032961;28;20774;-77
2022/01/18 09:22:35;;;;;;;5.90;4.87;;;2.20;99.90;;;;;;5033638;28;20189;-77
2022/01/18 09:25:03;;;;;;;11.33;6.93;;;2.20;99.90;;;;;;5036467;28;20425;-77
2022/01/18 09:27:29;;;;;;;11.70;7.27;;;2.20;99.90;;;;;;5032755;28;20209;-77
2022/01/18 09:29:54;;;;;;;9.67;6.20;;;2.20;99.90;;;;;;5031933;28;20816;-77
2022/01/18 09:32:21;;;;;;;7.80;6.17;;;2.20;99.90;;;;;;5033336;28;20201;-77
2022/01/18 09:34:46;;;;;;;8.33;6.03;;;2.20;99.90;;;;;;5033099;28;20170;-77
2022/01/18 09:37:12;;;;;;;7.57;6.07;;;2.20;99.90;;;;;;5031796;28;20432;-77
2022/01/18 09:39:39;;;;;;;8.23;6.17;;;2.30;99.90;;;;;;5031953;28;20233;-77
2022/01/18 09:42:05;;;;;;;7.53;6.23;;;2.30;99.90;;;;;;5031883;28;20174;-77
2022/01/18 09:44:31;;;;;;;10.77;7.03;;;2.30;99.90;;;;;;5031621;28;20407;-77
2022/01/18 09:46:57;;;;;;;10.60;6.13;;;2.40;99.90;;;;;;5032243;28;20507;-77
2022/01/18 09:49:24;;;;;;;8.63;6.00;;;2.40;99.90;;;;;;5036867;28;20206;-77
2022/01/18 09:51:51;;;;;;;7.97;5.77;;;2.40;99.90;;;;;;5036962;28;20220;-77
2022/01/18 09:54:17;;;;;;;8.27;6.00;;;2.40;99.90;;;;;;5036632;28;20270;-77
2022/01/18 09:56:43;;;;;;;10.03;6.23;;;2.50;99.90;;;;;;5036573;28;20567;-77
2022/01/18 09:59:08;;;;;;;9.27;6.10;;;2.40;99.90;;;;;;5035525;28;20166;-77
2022/01/18 10:01:35;;;;;;;10.80;7.27;;;2.50;99.90;;;;;;5035401;28;20662;-77
2022/01/18 10:04:18;;;;;;;9.27;5.87;;;2.70;99.90;;;;;;5035147;28;20201;-77
2022/01/18 10:06:49;;;;;;;9.90;6.33;;;2.50;99.90;;;;;;5036712;28;20194;-77
2022/01/18 10:09:17;;;;;;;9.53;7.07;;;2.40;99.90;;;;;;5036559;28;20162;-78
2022/01/18 10:12:03;;;;;;;12.23;7.17;;;2.40;99.90;;;;;;5036645;28;20201;-77
2022/01/18 10:14:34;;;;;;;12.13;7.40;;;2.40;99.90;;;;;;5035304;28;20181;-77
2022/01/18 10:17:00;;;;;;;10.67;6.77;;;2.40;99.90;;;;;;5036353;28;20425;-77
2022/01/18 10:19:36;;;;;;;12.07;7.97;;;2.40;99.90;;;;;;5036417;28;20174;-77
2022/01/18 10:22:12;;;;;;;12.27;8.27;;;2.40;99.90;;;;;;5036237;28;20385;-77
2022/01/18 10:24:38;;;;;;;16.20;9.03;;;2.40;99.90;;;;;;5036365;28;20159;-77
2022/01/18 10:27:05;;;;;;;11.30;7.60;;;2.40;99.90;;;;;;5035079;28;20428;-77
2022/01/18 10:29:38;;;;;;;8.83;6.33;;;2.40;99.90;;;;;;5035996;28;20174;-77
2022/01/18 10:32:30;;;;;;;10.60;7.10;;;2.40;99.90;;;;;;5035976;28;20163;-77
2022/01/18 10:37:22;;;;;;;13.73;9.00;;;2.50;99.90;;;;;;5037042;28;20205;-77
2022/01/18 10:39:57;;;;;;;16.60;10.33;;;2.60;99.90;;;;;;5036141;28;20201;-77
2022/01/18 10:42:26;;;;;;;9.30;6.87;;;2.50;99.90;;;;;;5034777;28;20185;-77
2022/01/18 10:45:05;;;;;;;7.17;5.67;;;2.50;99.90;;;;;;5034438;28;20186;-77
2022/01/18 10:47:33;;;;;;;8.77;5.13;;;2.40;99.90;;;;;;5034578;28;20695;-77
2022/01/18 10:50:08;;;;;;;9.50;5.47;;;2.50;99.90;;;;;;5034386;28;20224;-77
2022/01/18 10:52:34;;;;;;;7.40;5.13;;;2.50;99.90;;;;;;5035777;28;20244;-77
2022/01/18 10:55:01;;;;;;;6.60;4.57;;;2.60;99.90;;;;;;5035808;28;20320;-77
2022/01/18 10:57:36;;;;;;;8.83;5.87;;;2.50;99.90;;;;;;5034323;28;20214;-77
2022/01/18 11:00:09;;;;;;;8.50;5.70;;;2.40;99.90;;;;;;5033122;28;20223;-77
2022/01/18 11:02:43;;;;;;;8.07;6.43;;;2.50;99.90;;;;;;5035511;28;20568;-77
2022/01/18 11:05:25;;;;;;;7.77;6.03;;;2.60;99.90;;;;;;5035399;28;20172;-77
2022/01/18 11:07:52;;;;;;;7.80;5.37;;;2.50;99.90;;;;;;5034135;28;20171;-77
2022/01/18 11:10:21;;;;;;;7.60;5.13;;;2.50;99.90;;;;;;5035328;28;20244;-77
2022/01/18 11:12:57;;;;;;;6.77;4.80;;;2.40;99.90;;;;;;5035425;28;20182;-77
2022/01/18 11:15:25;;;;;;;6.40;4.50;;;2.50;99.90;;;;;;5035217;28;20151;-77
2022/01/18 11:17:58;;;;;;;6.93;4.90;;;2.50;99.90;;;;;;5033998;28;20174;-77
2022/01/18 11:20:29;;;;;;;7.60;5.43;;;2.50;99.90;;;;;;5035487;28;20170;-77
2022/01/18 11:22:56;;;;;;;7.33;5.63;;;2.50;99.90;;;;;;5033918;28;20178;-77
2022/01/18 11:25:22;;;;;;;6.30;5.20;;;2.50;99.90;;;;;;5033667;28;20182;-77
2022/01/18 11:27:51;;;;;;;5.73;5.00;;;2.50;99.90;;;;;;5035077;28;20261;-77
2022/01/18 11:30:20;;;;;;;6.97;4.47;;;2.40;99.90;;;;;;5034979;28;20202;-77
2022/01/18 11:32:50;;;;;;;7.40;5.13;;;2.30;99.90;;;;;;5033721;28;20182;-77
2022/01/18 11:35:25;;;;;;;8.00;5.30;;;2.50;99.90;;;;;;5034606;28;20533;-77
2022/01/18 11:38:15;;;;;;;7.23;5.30;;;2.50;99.90;;;;;;5033724;28;20249;-77
2022/01/18 11:40:47;;;;;;;6.03;4.20;;;3.50;99.90;;;;;;5033907;28;20182;-77
2022/01/18 11:43:14;;;;;;;3.80;3.43;;;4.30;99.90;;;;;;5034862;28;20611;-77
2022/01/18 11:45:42;;;;;;;7.00;4.40;;;5.20;99.90;;;;;;5034969;28;20200;-77
2022/01/18 11:48:18;;;;;;;4.97;3.50;;;6.00;99.90;;;;;;5035960;28;20241;-77
2022/01/18 11:50:46;;;;;;;5.43;3.50;;;6.80;99.90;;;;;;5034779;28;20280;-78
2022/01/18 11:53:24;;;;;;;4.70;3.00;;;7.50;99.90;;;;;;5035355;28;20171;-79
2022/01/18 11:55:58;;;;;;;4.83;3.17;;;8.20;99.90;;;;;;5035185;28;20388;-78
2022/01/18 11:58:26;;;;;;;3.60;2.73;;;8.30;99.90;;;;;;5035370;28;20197;-78
2022/01/18 12:01:00;;;;;;;4.20;3.23;;;7.60;99.90;;;;;;5036930;28;20186;-78
2022/01/18 12:03:30;;;;;;;3.90;2.97;;;6.50;99.90;;;;;;5036019;28;20189;-78
2022/01/18 12:05:59;;;;;;;3.87;3.07;;;5.70;99.90;;;;;;5034439;28;20209;-77
2022/01/18 12:08:38;;;;;;;4.23;2.87;;;5.20;99.90;;;;;;5036946;28;20178;-77
2022/01/18 12:11:32;;;;;;;4.23;3.10;;;4.80;99.90;;;;;;5035351;28;20200;-77
2022/01/18 12:14:00;;;;;;;3.27;2.93;;;4.60;99.90;;;;;;5035419;28;20245;-78
2022/01/18 12:16:29;;;;;;;3.93;3.00;;;4.40;99.90;;;;;;5043666;28;20627;-78
2022/01/18 12:19:06;;;;;;;6.90;3.40;;;4.10;99.90;;;;;;5046496;28;20177;-78
2022/01/18 12:21:34;;;;;;;4.03;3.30;;;3.90;99.90;;;;;;5047330;28;20646;-78
2022/01/18 12:24:21;;;;;;;5.07;3.13;;;3.60;99.90;;;;;;5044514;28;20210;-78
2022/01/18 12:26:49;;;;;;;5.37;4.33;;;3.50;99.90;;;;;;5048203;28;20208;-77
2022/01/18 12:34:40;;;;;;;5.20;4.30;;;3.60;99.90;;;;;;5035287;28;20194;-78
2022/01/18 12:37:10;;;;;;;6.33;4.07;;;3.60;99.90;;;;;;5035884;28;20187;-78
2022/01/18 12:39:59;;;;;;;4.13;3.50;;;3.50;99.90;;;;;;5035173;28;20202;-78
2022/01/18 12:45:22;;;;;;;3.97;3.37;;;3.30;99.90;;;;;;5038855;28;20168;-78
2022/01/18 12:48:08;;;;;;;7.40;3.70;;;3.30;99.90;;;;;;5033824;28;20174;-78
2022/01/18 12:50:41;;;;;;;6.73;4.10;;;3.50;99.90;;;;;;5034969;28;20254;-77
2022/01/18 12:53:15;;;;;;;5.33;3.30;;;3.60;99.90;;;;;;5034750;28;20163;-78
2022/01/18 12:55:47;;;;;;;4.97;3.60;;;3.70;99.90;;;;;;5032330;28;20224;-77
2022/01/18 12:58:19;;;;;;;5.60;4.10;;;3.60;99.90;;;;;;5032388;28;20197;-77
2022/01/18 13:00:53;;;;;;;5.50;4.10;;;3.70;99.90;;;;;;5033682;28;20168;-78
2022/01/18 13:03:21;;;;;;;5.80;4.10;;;3.60;99.90;;;;;;5034247;28;20566;-78
2022/01/18 13:05:49;;;;;;;5.77;4.07;;;3.50;99.90;;;;;;5032143;28;20210;-78
2022/01/18 13:08:17;;;;;;;5.97;4.20;;;3.50;99.90;;;;;;5033922;28;20186;-78
2022/01/18 13:10:49;;;;;;;4.73;3.83;;;3.50;99.90;;;;;;5033638;28;20198;-78
2022/01/18 13:13:19;;;;;;;4.47;3.77;;;3.40;99.90;;;;;;5032547;28;20179;-78
2022/01/18 13:24:47;;;;;;;5.97;4.23;;;3.40;99.90;;;;;;5037751;28;20174;-79
2022/01/18 13:26:55;;;;;;;12.83;6.83;;;3.30;99.90;;;;;;5034202;28;20281;-78
2022/01/18 13:29:24;;;;;;;14.97;7.87;;;3.30;99.90;;;;;;5036192;28;20261;-78
2022/01/18 13:32:03;;;;;;;9.73;5.93;;;3.30;99.90;;;;;;5036159;28;20206;-78
2022/01/18 13:34:31;;;;;;;5.70;4.73;;;3.30;99.90;;;;;;5037236;28;20167;-78
2022/01/18 13:36:56;;;;;;;5.63;3.80;;;3.30;99.90;;;;;;5037301;28;20232;-78
2022/01/18 13:39:30;;;;;;;5.13;3.90;;;3.30;99.90;;;;;;5036158;28;20213;-78
2022/01/18 13:42:00;;;;;;;7.00;4.30;;;3.40;99.90;;;;;;5037620;28;20159;-78
2022/01/18 13:44:28;;;;;;;4.57;3.47;;;3.40;99.90;;;;;;5036120;28;20648;-78
2022/01/18 13:46:54;;;;;;;4.80;3.80;;;3.40;99.90;;;;;;5037711;28;20194;-77
2022/01/18 13:49:24;;;;;;;3.93;3.13;;;3.30;99.90;;;;;;5035878;28;20181;-77
2022/01/18 13:52:06;;;;;;;6.43;3.87;;;3.30;99.90;;;;;;5041711;28;20194;-79
2022/01/18 13:54:50;;;;;;;5.57;3.97;;;3.20;99.90;;;;;;5039730;28;20201;-78
2022/01/18 13:57:21;;;;;;;5.10;4.13;;;3.20;99.90;;;;;;5041956;28;20297;-78
2022/01/18 13:59:48;;;;;;;5.27;3.97;;;3.10;99.90;;;;;;5042943;28;20232;-78
2022/01/18 14:02:18;;;;;;;9.57;5.87;;;3.10;99.90;;;;;;5042752;28;20178;-79
2022/01/18 14:04:46;;;;;;;5.57;3.60;;;3.10;99.90;;;;;;5044443;28;20205;-78
2022/01/18 14:07:12;;;;;;;7.07;4.00;;;3.00;99.90;;;;;;5040948;28;20677;-78
2022/01/18 14:09:38;;;;;;;5.73;4.13;;;2.90;99.90;;;;;;5043350;28;20272;-78
2022/01/18 14:12:05;;;;;;;9.23;4.20;;;3.00;99.90;;;;;;5054169;28;20173;-78
2022/01/18 14:14:36;;;;;;;5.83;3.97;;;2.90;99.90;;;;;;5054462;28;20182;-78
2022/01/18 14:17:11;;;;;;;7.30;3.90;;;2.90;99.90;;;;;;5052714;28;20194;-78
2022/01/18 14:19:43;;;;;;;5.57;3.70;;;2.90;99.90;;;;;;5041352;28;20174;-78
2022/01/18 14:22:16;;;;;;;5.07;3.73;;;2.80;99.90;;;;;;5041695;28;20232;-78
2022/01/18 14:24:47;;;;;;;6.70;4.60;;;2.90;99.90;;;;;;5036615;28;20429;-78
2022/01/18 14:27:20;;;;;;;4.70;3.73;;;2.80;99.90;;;;;;5040410;28;20265;-78
2022/01/18 14:29:51;;;;;;;4.30;3.47;;;2.90;99.90;;;;;;5039809;28;20183;-78
2022/01/18 14:32:27;;;;;;;5.93;3.40;;;2.90;99.90;;;;;;5039803;28;20170;-78
2022/01/18 14:34:56;;;;;;;5.87;3.93;;;2.70;99.90;;;;;;5037519;28;20233;-78